This is the latest recevied weather packets stored in our database for station/object M0TUM-1. If no packets are shown the sender has not sent any weather packets the latest 10 day(s).
| Time | Temp. | Humidity | Pressure | Rain* | Wind** | Luminosity | Snow |
|---|---|---|---|---|---|---|---|
| 1777796754 | 13.89° C | 84% | 1009 hPa | 0 mm | - | 163 W/m² | - |
| 1777796451 | 13.33° C | 85% | 1008.7 hPa | 0 mm | - | 145 W/m² | - |
| 1777796151 | 13.89° C | 85% | 1009 hPa | 0 mm | - | 117 W/m² | - |
| 1777795848 | 13.89° C | 85% | 1009.1 hPa | 0 mm | - | 140 W/m² | - |
| 1777795544 | 13.33° C | 86% | 1009 hPa | 0 mm | - | 158 W/m² | - |
| 1777795241 | 13.33° C | 86% | 1008.9 hPa | 0 mm | - | 160 W/m² | - |
| 1777794938 | 13.33° C | 86% | 1008.9 hPa | 0 mm | - | 154 W/m² | - |
| 1777794634 | 13.33° C | 87% | 1009 hPa | 0 mm | - | 150 W/m² | - |
| 1777794330 | 13.33° C | 87% | 1009 hPa | 0 mm | - | 150 W/m² | - |
| 1777794025 | 13.33° C | 88% | 1009.1 hPa | 0 mm | - | 160 W/m² | - |
| 1777793722 | 12.78° C | 88% | 1009 hPa | 0 mm | - | 169 W/m² | - |
| 1777793421 | 12.78° C | 88% | 1009 hPa | 0 mm | - | 102 W/m² | - |
| 1777793118 | 12.78° C | 88% | 1009.1 hPa | 0 mm | - | 98 W/m² | - |
| 1777792815 | 12.78° C | 88% | 1009 hPa | 0 mm | - | 84 W/m² | - |
| 1777792512 | 12.78° C | 88% | 1009.2 hPa | 0 mm | - | 82 W/m² | - |
| 1777792208 | 12.22° C | 88% | 1008.9 hPa | 0 mm | - | 81 W/m² | - |
| 1777791905 | 12.78° C | 88% | 1009 hPa | 0 mm | - | 79 W/m² | - |
| 1777791604 | 12.78° C | 88% | 1009 hPa | 0 mm | - | 80 W/m² | - |
| 1777791301 | 12.78° C | 88% | 1008.8 hPa | 0 mm | - | 66 W/m² | - |
| 1777790998 | 12.22° C | 88% | 1008.8 hPa | 0 mm | - | 84 W/m² | - |
| 1777790696 | 12.22° C | 88% | 1008.9 hPa | 0 mm | - | 101 W/m² | - |
| 1777790392 | 12.22° C | 88% | 1008.6 hPa | 0 mm | - | 90 W/m² | - |
| 1777790089 | 12.22° C | 88% | 1008.8 hPa | 0 mm | - | 75 W/m² | - |
| 1777789788 | 12.22° C | 88% | 1008.8 hPa | 0 mm | - | 70 W/m² | - |
| 1777789486 | 11.67° C | 88% | 1008.6 hPa | 0 mm | - | 58 W/m² | - |
* Rain latest hour (hover to see other rain measurements)
** Current wind speed in m/s (hover to see current wind gust speed)